Monday, November 24, 2014
05:10 UTC
  |  Log In   |  Register Free
Airport Search:

Indiana County/Jimmy Stewart Fld/ Airport
(KIDI)

Indiana County/Jimmy Stewart Fld/ Airport Diagram
No Airport Diagram Available

FAA data valid effective November 13, 2014 - January 08, 2015 (unless otherwise noted).

 
 
 
 
 
 
 
 
 
 
 
 
 
 

Current Aviation Weather for Indiana County/Jimmy Stewart Fld/ Airport (KIDI)

The most recent METAR observation for KIDI was updated at: 0427
METAR Summary (Translated METAR)
KIDI
240415Z AUTO 14009G16KT 110V180 6SM BR BKN018 BKN038 OVC070 10/08 A2967 RMK A01
KJST
240402Z AUTO 14016G23KT 7SM -RA SCT007 BKN055 OVC075 07/06 A2967 RMK AO2 P0001 T00720056
(22.7 nm SE from KIDI)
KLBE
240415Z AUTO 12017G26KT 5SM -RA FEW036 BKN046 OVC095 11/10 A2958 RMK AO2
(25.5 nm SW from KIDI)
TAF Summary (Translated TAF)
KJST
(22.7 nm SE from KIDI)
240312Z 2403/2424 15016G28KT 6SM -RA OVC015 WS015/17055KT FM240430 15015G28KT 4SM -RA BR OVC007 WS015/17055KT FM240600 17012G20KT 2SM -RA BR OVC002 WS015/18048KT FM241400 20014G24KT P6SM BKN045 FM241700 21017G33KT P6SM BKN045
KLBE
(25.5 nm SW from KIDI)
240208Z 2402/2424 15012G21KT 6SM -RA BKN050 FM240500 18012G22KT 5SM -RA OVC020 TEMPO 2406/2409 2SM -RA BR OVC008 FM241100 17013KT P6SM OVC025 FM241500 20020G39KT P6SM BKN050
  Airport Weather Conditions for KIDI

 Current Weather at IDI
50° F
Fog/Mist
South winds at 8.1 mph
IDI NOAA Radar

Pressure: 29.69 in
Humidity: 88%
Wind: from the South at 8.1 gusting to 20.7 MPH (7 gusting to 18 KT)
Dew Point: 46.4°F
Visibility: 4.00 mi


Airport Weather Forecast for KIDI

Translated METAR and TAF for KIDI
Translated METAR for KIDI (0505 UTC 24 November 2014)
found at http://aviationweather.gov/adds/metars/
 
METAR text: KIDI 240455Z AUTO 14011G18KT 4SM BR SCT017 BKN040 OVC080 10/08 A2962 RMK A01
Conditions at: KIDI (INDIANA/STEWART , PA, US) observed 0455 UTC 24 November 2014
Temperature: 10.0°C (50°F)
Dewpoint: 8.0°C (46°F) [RH = 87%]
Pressure (altimeter): 29.62 inches Hg (1003.1 mb)
Winds: from the SE (140 degrees) at 13 MPH (11 knots; 5.7 m/s)
gusting to 21 MPH (18 knots; 9.4 m/s)
Visibility: 4 miles (6 km)
Ceiling: 4000 feet AGL
Clouds: scattered clouds at 1700 feet AGL
broken clouds at 4000 feet AGL
overcast cloud deck at 8000 feet AGL
Weather: BR  (mist)
Translated TAF for KIDI

There is no translated TAF available for this airport

Find All Airport Services Find A Hotel Find A Rental Car Find A Golf Course Find A Restaurant $100 Hamburger



FBO's on the Field
FBO Company Facility Photos Services Transportation Aviation Fuel Prices: Prices include tax
Catering Weather Repair Courtesy Rental Type 100LL JetA JetA+ MOGAS 8087
 
Indiana County Jimmy Stewart Airport

Currently rated 5 by 1 person
FS:Phillips 66
Last Updated: Nov-13
Login to update fuel prices
SS:
Contact Indiana County Jimmy Stewart AirportMore FBO Information
 
Add another FBO Facility Photos Catering Weather Repair Courtesy Rental Type 100LL JetA JetA+ MOGAS 8087
Services Transportation Aviation Fuel Prices: Prices include tax


model-print
model-print
model-print
model-print